• Join FlightAware (Why Join?)
  • Login
  • US Flag 
03:43PM EDT


 

Airport Tracker/Info


-or-


 

Live Flight TrackerFlight Track Log ✈ AAL1862 ✈ 07-May-2013 ✈ KDFW - KSTL

Flight Track Log - Related Links

Times and Time Zones

All times are in EDT time to prevent confusion due to time zone crossing. See the AAL1862 flight status page for this flight to view local times or setup timezone preferences in your user account.

Time Position Orientation Groundspeed Altitude Reporting Facility
EDT Latitude Longitude Course Direction KTS MPH feet Rate Location/Type
07:51AM 32.8833 -97.0333 357° North 152 175 1,900  Level Dallas / Fort Worth TRACON
07:53AM 32.7833 -97.0000 164° South 258 297 5,800 2,580 Climbing Dallas / Fort Worth TRACON
07:54AM 32.8577 -96.8000 North  Level FlightAware Approximate
07:54AM 32.7667 -96.9167 103° East 285 328 9,000  Level Dallas / Fort Worth TRACON
07:55AM 32.9786 -96.8000 North  Level FlightAware Approximate
07:56AM 33.0994 -96.8023 357° North  Level FlightAware Approximate
07:56AM 32.8467 -96.8150 47° Northeast 251 289 13,100  Level Fort Worth Center
07:57AM 32.9364 -96.8069 North 291 335 16,000 2,760 Climbing Fort Worth Center
07:58AM 33.0322 -96.8114 358° North 338 389 18,700 2,520 Climbing Fort Worth Center
07:59AM 33.1306 -96.8156 358° North 349 402 21,100 2,280 Climbing Fort Worth Center
08:00AM 33.2183 -96.8397 347° North 349 402 23,300 2,100 Climbing Fort Worth Center
08:01AM 33.3269 -96.8739 345° North 359 413 25,300 1,620 Climbing Fort Worth Center
08:02AM 33.4228 -96.8361 18° North 372 428 26,600 1,620 Climbing Fort Worth Center
08:03AM 33.5350 -96.7431 35° Northeast 399 459 28,600 1,920 Climbing Fort Worth Center
08:04AM 33.6264 -96.6750 32° Northeast 423 487 30,500 1,800 Climbing Fort Worth Center
08:05AM 33.7408 -96.5917 31° Northeast 441 507 32,200 1,680 Climbing Fort Worth Center
08:06AM 33.8425 -96.5181 31° Northeast 435 501 33,900 1,320 Climbing Fort Worth Center
08:07AM 33.9464 -96.4444 30° Northeast 424 488 34,900 540 Climbing Fort Worth Center
08:08AM 34.0481 -96.3706 31° Northeast 424 488 35,000  Climbing Fort Worth Center
08:09AM 34.1558 -96.2917 31° Northeast 430 495 35,000  Level Fort Worth Center
08:10AM 34.2594 -96.2125 32° Northeast 430 495 35,000  Level Fort Worth Center
08:11AM 34.3672 -96.1353 31° Northeast 435 501 35,000  Level Fort Worth Center
08:12AM 34.4728 -96.0583 31° Northeast 435 501 35,000  Level Fort Worth Center
08:13AM 34.5783 -95.9808 31° Northeast 441 507 35,000  Level Fort Worth Center
08:14AM 34.6839 -95.9058 30° Northeast 441 507 35,000  Level Fort Worth Center
08:15AM 34.7872 -95.8258 32° Northeast 441 507 35,000  Level Fort Worth Center
08:16AM 34.8925 -95.7403 34° Northeast 441 507 35,000  Level Fort Worth Center
08:17AM 34.9853 -95.6572 36° Northeast 446 513 35,000  Level Fort Worth Center
08:18AM 35.1800 -95.4708 38° Northeast 472 543 35,000  Level Memphis Center
08:19AM 35.2753 -95.3825 37° Northeast 449 517 35,000  Level Memphis Center
08:20AM 35.3728 -95.2892 38° Northeast 444 511 35,000  Level Memphis Center
08:21AM 35.4725 -95.1956 37° Northeast 444 511 35,000  Level Memphis Center
08:22AM 35.5722 -95.0994 38° Northeast 444 511 35,000  Level Memphis Center
08:23AM 35.6697 -95.0028 39° Northeast 444 511 35,000  Level Memphis Center
08:24AM 35.7669 -94.9111 37° Northeast 444 511 35,000  Level Memphis Center
08:25AM 35.8619 -94.8164 39° Northeast 439 505 35,000  Level Memphis Center
08:28AM 36.0733 -94.6108 38° Northeast 445 512 35,000  Level Kansas City Center
08:29AM 36.1711 -94.5167 38° Northeast 446 513 35,000  Level Kansas City Center
08:30AM 36.2675 -94.4219 38° Northeast 446 513 35,000  Level Kansas City Center
08:31AM 36.3631 -94.3275 39° Northeast 444 511 35,000  Level Kansas City Center
08:32AM 36.4794 -94.2142 38° Northeast 443 510 35,000  Level Kansas City Center
08:33AM 36.5744 -94.1203 38° Northeast 441 507 35,000  Level Kansas City Center
08:34AM 36.6689 -94.0256 39° Northeast 439 505 35,000  Level Kansas City Center
08:35AM 36.7639 -93.9322 38° Northeast 437 503 35,000  Level Kansas City Center
08:36AM 36.8569 -93.8389 39° Northeast 434 499 35,000  Level Kansas City Center
08:37AM 36.9569 -93.7369 39° Northeast 428 493 35,000  Level Kansas City Center
08:38AM 37.0494 -93.6431 39° Northeast 428 493 35,000  Level Kansas City Center
08:39AM 37.1431 -93.5486 39° Northeast 429 494 35,000  Level Kansas City Center
08:40AM 37.2378 -93.4536 39° Northeast 432 497 35,000  Level Kansas City Center
08:41AM 37.3336 -93.3603 38° Northeast 433 498 35,000  Level Kansas City Center
08:42AM 37.4242 -93.2581 42° Northeast 435 501 35,000  Level Kansas City Center
08:43AM 37.5103 -93.1525 44° Northeast 431 496 35,000  Level Kansas City Center
08:44AM 37.6186 -93.0283 42° Northeast 435 501 35,000 -60 Level Kansas City Center
08:45AM 37.7067 -92.9222 44° Northeast 437 503 34,900 -540 Descending Kansas City Center
08:46AM 37.7950 -92.8172 43° Northeast 433 498 33,900 -960 Descending Kansas City Center
08:47AM 37.8764 -92.7222 43° Northeast 430 495 33,000 -1,020 Descending Kansas City Center
08:48AM 37.9639 -92.6186 43° Northeast 431 496 31,900 -1,200 Descending Kansas City Center
08:49AM 38.0517 -92.5128 43° Northeast 434 499 30,600 -1,320 Descending Kansas City Center
08:50AM 38.1397 -92.4092 43° Northeast 434 499 29,300 -1,320 Descending Kansas City Center
08:51AM 38.2439 -92.2858 43° Northeast 440 506 27,900 -1,320 Descending Kansas City Center
08:52AM 38.3342 -92.1750 44° Northeast 445 512 26,600 -1,320 Descending Kansas City Center
08:53AM 38.4217 -92.0692 43° Northeast 435 501 25,300 -1,440 Descending Kansas City Center
08:54AM 38.5089 -91.9636 43° Northeast 431 496 23,700 -1,620 Descending Kansas City Center
08:55AM 38.5928 -91.8617 44° Northeast 419 482 22,100 -1,620 Descending Kansas City Center
08:56AM 38.6744 -91.7622 44° Northeast 409 471 20,500 -1,800 Descending Kansas City Center
08:57AM 38.6911 -91.5956 83° East 394 453 18,400 -1,740 Descending Kansas City Center
08:58AM 38.6939 -91.4525 89° East 398 458 17,000 -1,500 Descending Kansas City Center
09:00AM 38.6931 -91.3100 90° East 399 459 15,400 -1,020 Descending Kansas City Center
09:01AM 38.6931 -91.1750 90° East 393 452 15,000 -1,080 Descending Kansas City Center
09:02AM 38.6933 -91.0431 90° East 382 440 13,300 -1,800 Descending Kansas City Center
09:03AM 38.6944 -90.9133 89° East 371 427 11,400 -1,380 Descending Kansas City Center
09:04AM 38.7017 -90.8014 85° East 327 376 10,500 -1,140 Descending Kansas City Center
09:05AM 38.7061 -90.7025 87° East 293 337 9,100 -1,260 Descending Kansas City Center
09:06AM 38.7106 -90.6036 87° East 281 323 8,000 -540 Descending Kansas City Center
09:07AM 38.7114 -90.4875 89° East 278 320 8,000 -660 Level Kansas City Center
09:08AM 38.6742 -90.4036 120° Southeast 284 327 6,700 -1,440 Descending Kansas City Center
09:09AM 38.6275 -90.3147 124° Southeast 276 318 5,100 -1,020 Descending Kansas City Center
09:10AM 38.5850 -90.2403 126° Southeast 264 304 4,600 -720 Descending Kansas City Center
09:11AM 38.6253 -90.1975 40° Northeast 207 238 3,700 -900 Descending Kansas City Center